Time;durP1;ratioP1;P1;durP2;ratioP2;P2;SDS_P1;SDS_P2;PMS_P1;PMS_P2;Temp;Humidity;BMP_temperature;BMP_pressure;BME280_temperature;BME280_humidity;BME280_pressure;Samples;Min_cycle;Max_cycle;Signal;HPM_P1;HPM_P2
2021/03/27 00:00:26;;;;;;;;;;;21.40;99.90;;;;;;4941875;29;19926;-82
2021/03/27 00:03:03;;;;;;;;;;;21.50;99.60;;;;;;4940582;29;19919;-82
2021/03/27 00:05:56;;;;;;;;;;;21.50;99.20;;;;;;4957690;29;20255;-83
2021/03/27 00:08:25;;;;;;;;;;;21.70;98.70;;;;;;4952509;29;19921;-83
2021/03/27 00:10:56;;;;;;;;;;;21.80;99.30;;;;;;4957516;29;19926;-82
2021/03/27 00:13:47;;;;;;;;;;;21.90;98.40;;;;;;4956894;29;19969;-83
2021/03/27 00:16:27;;;;;;;;;;;22.10;97.30;;;;;;4957213;29;19910;-85
2021/03/27 00:19:09;;;;;;;;;;;22.10;97.50;;;;;;4957386;29;19927;-83
2021/03/27 00:21:46;;;;;;;;;;;22.10;97.00;;;;;;4965651;29;19919;-83
2021/03/27 00:24:23;;;;;;;;;;;22.20;96.50;;;;;;4966021;29;20321;-84
2021/03/27 00:26:59;;;;;;;;;;;22.30;96.10;;;;;;4957666;29;19910;-83
2021/03/27 00:29:28;;;;;;;;;;;22.40;95.70;;;;;;4974720;29;19973;-83
2021/03/27 00:32:02;;;;;;;;;;;22.40;95.70;;;;;;4975812;29;19946;-82
2021/03/27 00:34:31;;;;;;;;;;;22.40;95.20;;;;;;4958022;29;19906;-81
2021/03/27 00:37:05;;;;;;;;;;;22.60;94.70;;;;;;4957588;29;19914;-83
2021/03/27 00:39:33;;;;;;;;;;;22.80;94.80;;;;;;4939096;29;19923;-82
2021/03/27 00:42:23;;;;;;;;;;;22.80;94.50;;;;;;4938845;29;20365;-82
2021/03/27 00:44:51;;;;;;;;;;;22.80;93.50;;;;;;4946653;29;20246;-83
2021/03/27 00:47:20;;;;;;;;;;;22.80;93.50;;;;;;4956616;29;19915;-83
2021/03/27 00:49:59;;;;;;;;;;;22.80;93.70;;;;;;4935098;29;19923;-82
2021/03/27 00:52:29;;;;;;;;;;;22.90;92.40;;;;;;4956330;28;19917;-80
2021/03/27 00:54:58;;;;;;;;;;;23.10;92.20;;;;;;4956903;29;19918;-83
2021/03/27 00:57:30;;;;;;;;;;;23.20;93.10;;;;;;4954602;29;19919;-82
2021/03/27 01:00:00;;;;;;;;;;;23.20;93.30;;;;;;4966323;29;19911;-80
2021/03/27 01:02:27;;;;;;;;;;;23.20;92.10;;;;;;4969291;29;20392;-81
2021/03/27 01:04:57;;;;;;;;;;;23.10;92.30;;;;;;4964186;29;19910;-81
2021/03/27 01:07:24;;;;;;;;;;;23.20;91.90;;;;;;4935759;29;20001;-82
2021/03/27 01:09:54;;;;;;;;;;;23.20;91.50;;;;;;4956709;29;19925;-82
2021/03/27 01:12:31;;;;;;;;;;;23.20;91.90;;;;;;4956889;29;19990;-80
2021/03/27 01:15:18;;;;;;;;;;;23.50;90.90;;;;;;4932236;29;19920;-80
2021/03/27 01:17:50;;;;;;;;;;;23.60;90.10;;;;;;4949064;29;20013;-82
2021/03/27 01:20:28;;;;;;;;;;;24.10;90.00;;;;;;4956707;28;19957;-82
2021/03/27 01:22:58;;;;;;;;;;;24.10;89.30;;;;;;4956838;28;19910;-82
2021/03/27 01:25:29;;;;;;;;;;;24.50;88.10;;;;;;4956159;28;19918;-83
2021/03/27 01:27:56;;;;;;;;;;;24.80;87.30;;;;;;4955638;28;19984;-81
2021/03/27 01:30:44;;;;;;;;;;;24.70;87.70;;;;;;4958348;28;19918;-82
2021/03/27 01:33:22;;;;;;;;;;;25.00;86.40;;;;;;4957094;29;20381;-80
2021/03/27 01:36:11;;;;;;;;;;;25.20;84.90;;;;;;4939065;29;20009;-80
2021/03/27 01:38:38;;;;;;;;;;;25.00;84.90;;;;;;4938775;29;19923;-81
2021/03/27 01:41:15;;;;;;;;;;;24.90;84.70;;;;;;4955636;29;19930;-79
2021/03/27 01:43:42;;;;;;;;;;;24.90;82.40;;;;;;4936851;29;20354;-83
2021/03/27 01:46:40;;;;;;;;;;;24.70;83.80;;;;;;4953425;29;19914;-81
2021/03/27 01:49:25;;;;;;;;;;;24.50;82.70;;;;;;4923513;29;19921;-81
2021/03/27 01:51:57;;;;;;;;;;;24.50;89.20;;;;;;4956067;28;20396;-82
2021/03/27 01:54:27;;;;;;;;;;;24.50;84.30;;;;;;4947381;29;19914;-81
2021/03/27 01:57:09;;;;;;;;;;;24.40;84.10;;;;;;4954617;29;19921;-82
2021/03/27 01:59:37;;;;;;;;;;;24.30;83.00;;;;;;4947452;29;20330;-81
2021/03/27 02:02:34;;;;;;;;;;;24.30;83.30;;;;;;4954944;28;20262;-81
2021/03/27 02:05:01;;;;;;;;;;;24.30;81.70;;;;;;4942765;28;19915;-80
2021/03/27 02:07:37;;;;;;;;;;;24.40;79.00;;;;;;4949704;29;19914;-82
2021/03/27 02:10:35;;;;;;;;;;;24.50;81.10;;;;;;4969513;29;19923;-81
2021/03/27 02:13:10;;;;;;;;;;;24.50;81.30;;;;;;4916838;29;19941;-81
2021/03/27 02:15:43;;;;;;;;;;;24.50;79.80;;;;;;4953299;29;19961;-83
2021/03/27 02:18:16;;;;;;;;;;;24.50;85.40;;;;;;4934587;29;19922;-83
2021/03/27 02:20:56;;;;;;;;;;;24.50;80.90;;;;;;4934097;29;19911;-88
2021/03/27 02:23:23;;;;;;;;;;;24.60;78.40;;;;;;4945783;29;19919;-83
2021/03/27 02:26:25;;;;;;;;;;;24.60;80.70;;;;;;4937728;29;20279;-81
2021/03/27 02:29:06;;;;;;;;;;;24.60;78.30;;;;;;4857352;29;19916;-81
2021/03/27 02:31:36;;;;;;;;;;;24.60;78.70;;;;;;4941242;29;20020;-81
2021/03/27 02:34:21;;;;;;;;;;;24.50;81.20;;;;;;4955074;29;20273;-84
2021/03/27 02:37:03;;;;;;;;;;;24.40;78.50;;;;;;4939501;29;19975;-82
2021/03/27 02:39:35;;;;;;;;;;;24.30;80.10;;;;;;4935267;29;20297;-83
2021/03/27 02:42:02;;;;;;;;;;;24.20;81.00;;;;;;4944300;29;19997;-81
2021/03/27 02:44:39;;;;;;;;;;;24.30;78.60;;;;;;4949848;29;19915;-80
2021/03/27 02:47:25;;;;;;;;;;;24.40;78.30;;;;;;4940702;29;19914;-84
2021/03/27 02:49:51;;;;;;;;;;;24.40;79.70;;;;;;4945654;29;20274;-78
2021/03/27 02:52:27;;;;;;;;;;;24.30;79.70;;;;;;4938154;29;19918;-81
2021/03/27 02:55:02;;;;;;;;;;;24.20;81.70;;;;;;4954311;29;19993;-86
2021/03/27 02:57:32;;;;;;;;;;;24.20;78.80;;;;;;4954032;29;19915;-79
2021/03/27 03:00:12;;;;;;;;;;;24.20;78.00;;;;;;4954955;29;19910;-81
2021/03/27 03:02:45;;;;;;;;;;;24.10;78.90;;;;;;4955079;29;19910;-80
2021/03/27 03:05:20;;;;;;;;;;;24.30;76.40;;;;;;4956224;29;20500;-87
2021/03/27 03:07:50;;;;;;;;;;;24.40;77.70;;;;;;4954140;29;20349;-80
2021/03/27 03:10:29;;;;;;;;;;;24.50;77.20;;;;;;4954969;29;20313;-80
2021/03/27 03:12:59;;;;;;;;;;;24.60;76.00;;;;;;4955181;29;19911;-81
2021/03/27 03:15:43;;;;;;;;;;;24.50;76.90;;;;;;4954661;28;19914;-81
2021/03/27 03:18:31;;;;;;;;;;;24.40;80.50;;;;;;4958227;29;19930;-81
2021/03/27 03:20:58;;;;;;;;;;;24.30;81.20;;;;;;4941587;29;20273;-82
2021/03/27 03:23:28;;;;;;;;;;;24.40;78.00;;;;;;4959635;29;20490;-84
2021/03/27 03:26:02;;;;;;;;;;;24.50;77.30;;;;;;4945021;29;19970;-84
2021/03/27 03:28:35;;;;;;;;;;;24.50;76.70;;;;;;4958574;29;19937;-85
2021/03/27 03:31:08;;;;;;;;;;;24.80;77.00;;;;;;4958781;29;19922;-84
2021/03/27 03:33:42;;;;;;;;;;;24.80;75.00;;;;;;4939949;29;19978;-82
2021/03/27 03:36:12;;;;;;;;;;;24.80;75.60;;;;;;4939825;29;19918;-81
2021/03/27 03:38:50;;;;;;;;;;;24.80;76.10;;;;;;4947483;29;20443;-82
2021/03/27 03:41:38;;;;;;;;;;;24.70;73.30;;;;;;4955030;29;19915;-82
2021/03/27 03:44:23;;;;;;;;;;;24.60;73.50;;;;;;4922795;29;19929;-82
2021/03/27 03:46:50;;;;;;;;;;;24.70;73.00;;;;;;4939682;29;20354;-82
2021/03/27 03:49:22;;;;;;;;;;;24.90;73.10;;;;;;4937392;29;20391;-79
2021/03/27 03:52:07;;;;;;;;;;;25.00;73.70;;;;;;4957685;29;19918;-81
2021/03/27 03:54:47;;;;;;;;;;;24.90;71.30;;;;;;4958421;29;19917;-82
2021/03/27 03:57:14;;;;;;;;;;;24.90;72.10;;;;;;4958442;29;19959;-80
2021/03/27 03:59:49;;;;;;;;;;;25.00;69.60;;;;;;4942219;29;19915;-82
2021/03/27 04:02:36;;;;;;;;;;;25.00;70.20;;;;;;4943958;29;19914;-82
2021/03/27 04:05:19;;;;;;;;;;;25.20;69.60;;;;;;4956327;29;20396;-82
2021/03/27 04:07:49;;;;;;;;;;;25.20;70.20;;;;;;4941412;29;20332;-83
2021/03/27 04:10:21;;;;;;;;;;;25.20;69.70;;;;;;4940729;29;19970;-83
2021/03/27 04:12:51;;;;;;;;;;;25.10;71.10;;;;;;4956053;29;20290;-81
2021/03/27 04:15:23;;;;;;;;;;;25.00;70.70;;;;;;4946642;29;19998;-81
2021/03/27 04:18:06;;;;;;;;;;;24.90;72.30;;;;;;4949231;29;19922;-81
2021/03/27 04:20:54;;;;;;;;;;;24.80;72.90;;;;;;4949526;29;19914;-82
2021/03/27 04:23:34;;;;;;;;;;;24.80;71.80;;;;;;4949140;29;19918;-80
2021/03/27 04:26:23;;;;;;;;;;;24.90;72.30;;;;;;4958098;29;20270;-81
2021/03/27 04:28:58;;;;;;;;;;;24.90;71.50;;;;;;4925672;29;19918;-79
2021/03/27 04:31:46;;;;;;;;;;;24.80;70.80;;;;;;4957040;29;20296;-79
2021/03/27 04:34:17;;;;;;;;;;;24.80;72.20;;;;;;4940010;29;19993;-82
2021/03/27 04:37:02;;;;;;;;;;;24.60;71.50;;;;;;4957234;29;20005;-83
2021/03/27 04:39:50;;;;;;;;;;;24.60;70.80;;;;;;4956805;29;20361;-80
2021/03/27 04:42:32;;;;;;;;;;;24.80;72.50;;;;;;4935163;29;19938;-80
2021/03/27 04:45:16;;;;;;;;;;;24.80;71.00;;;;;;4953830;29;20021;-80
2021/03/27 04:47:53;;;;;;;;;;;24.60;70.60;;;;;;4938648;29;19911;-82
2021/03/27 04:50:32;;;;;;;;;;;24.60;74.20;;;;;;4956139;29;19918;-80
2021/03/27 04:53:06;;;;;;;;;;;24.50;85.00;;;;;;4956143;29;19911;-83
2021/03/27 04:55:39;;;;;;;;;;;24.30;87.10;;;;;;4956077;29;19911;-79
2021/03/27 04:58:08;;;;;;;;;;;24.20;87.30;;;;;;4939002;29;19914;-81
2021/03/27 05:00:53;;;;;;;;;;;24.20;89.00;;;;;;4956191;29;20383;-80
2021/03/27 05:03:22;;;;;;;;;;;24.20;90.20;;;;;;4938916;29;19914;-81
2021/03/27 05:05:55;;;;;;;;;;;24.00;89.90;;;;;;4939110;29;20353;-82
2021/03/27 05:08:24;;;;;;;;;;;23.90;90.10;;;;;;4939162;29;19911;-80
2021/03/27 05:11:00;;;;;;;;;;;23.80;90.20;;;;;;4956376;29;19981;-82
2021/03/27 05:13:35;;;;;;;;;;;23.70;90.40;;;;;;4938752;29;20239;-81
2021/03/27 05:16:16;;;;;;;;;;;23.50;90.90;;;;;;4939638;29;19910;-81
2021/03/27 05:19:01;;;;;;;;;;;23.40;90.80;;;;;;4923046;29;19923;-81
2021/03/27 05:21:27;;;;;;;;;;;23.40;89.60;;;;;;4939058;29;19918;-80
2021/03/27 05:23:54;;;;;;;;;;;23.40;90.60;;;;;;4943335;29;19911;-81
2021/03/27 05:26:37;;;;;;;;;;;23.30;90.10;;;;;;4937741;29;19958;-80
2021/03/27 05:29:18;;;;;;;;;;;23.40;90.60;;;;;;4917672;29;19954;-80
2021/03/27 05:31:56;;;;;;;;;;;23.50;90.40;;;;;;4920344;29;19950;-80
2021/03/27 05:34:26;;;;;;;;;;;23.50;91.20;;;;;;4920166;29;19911;-81
2021/03/27 05:37:11;;;;;;;;;;;23.60;91.40;;;;;;4936801;29;19942;-84
2021/03/27 05:39:45;;;;;;;;;;;23.50;91.70;;;;;;4918134;29;20329;-81
2021/03/27 05:42:32;;;;;;;;;;;23.40;91.70;;;;;;4920294;29;19914;-80
2021/03/27 05:45:20;;;;;;;;;;;23.40;92.30;;;;;;4891746;29;19971;-80
2021/03/27 05:47:47;;;;;;;;;;;23.40;91.40;;;;;;4930783;29;20010;-80
2021/03/27 05:50:21;;;;;;;;;;;23.30;90.30;;;;;;4937202;29;19919;-80
2021/03/27 05:53:06;;;;;;;;;;;23.30;90.30;;;;;;4920030;29;19941;-83
2021/03/27 05:56:01;;;;;;;;;;;23.40;91.00;;;;;;4936845;29;19915;-80
2021/03/27 05:58:31;;;;;;;;;;;23.40;90.90;;;;;;4925037;29;20362;-81
2021/03/27 06:01:17;;;;;;;;;;;23.30;90.60;;;;;;4937082;29;19917;-80
2021/03/27 06:04:02;;;;;;;;;;;23.30;91.00;;;;;;4919490;29;19911;-80
2021/03/27 06:06:28;;;;;;;;;;;23.30;90.80;;;;;;4919614;29;19940;-80
2021/03/27 06:09:04;;;;;;;;;;;23.30;89.30;;;;;;4936837;29;19914;-81
2021/03/27 06:11:56;;;;;;;;;;;23.30;87.10;;;;;;4936669;29;19918;-80
2021/03/27 06:14:34;;;;;;;;;;;23.20;87.90;;;;;;4914347;29;19929;-80
2021/03/27 06:17:16;;;;;;;;;;;23.20;86.50;;;;;;4944202;29;19918;-81
2021/03/27 06:19:56;;;;;;;;;;;23.20;86.40;;;;;;4941940;29;19918;-78
2021/03/27 06:22:41;;;;;;;;;;;23.20;86.30;;;;;;4954752;29;19910;-80
2021/03/27 06:25:26;;;;;;;;;;;23.20;88.30;;;;;;4958709;29;20009;-80
2021/03/27 06:28:01;;;;;;;;;;;23.20;86.90;;;;;;4961202;29;19910;-81
2021/03/27 06:30:37;;;;;;;;;;;23.10;88.70;;;;;;4941902;29;19925;-80
2021/03/27 06:33:19;;;;;;;;;;;23.10;88.80;;;;;;4962449;29;19910;-81
2021/03/27 06:36:01;;;;;;;;;;;23.10;90.00;;;;;;4961214;29;19997;-82
2021/03/27 06:38:34;;;;;;;;;;;23.10;90.40;;;;;;4955196;29;19964;-80
2021/03/27 06:41:05;;;;;;;;;;;23.00;90.50;;;;;;4958088;29;20294;-81
2021/03/27 06:43:43;;;;;;;;;;;23.00;90.00;;;;;;4971581;29;19910;-81
2021/03/27 06:46:22;;;;;;;;;;;23.00;90.60;;;;;;4956088;29;19915;-81
2021/03/27 06:49:07;;;;;;;;;;;22.90;90.40;;;;;;4955104;29;19910;-82
2021/03/27 06:51:34;;;;;;;;;;;23.00;90.00;;;;;;4954238;28;20404;-83
2021/03/27 06:54:18;;;;;;;;;;;23.00;90.10;;;;;;4955169;29;20373;-79
2021/03/27 06:57:00;;;;;;;;;;;23.00;90.10;;;;;;4955673;29;19921;-81
2021/03/27 06:59:45;;;;;;;;;;;22.90;91.00;;;;;;4939768;29;20285;-81
2021/03/27 07:02:24;;;;;;;;;;;22.90;91.50;;;;;;4955174;29;20334;-80
2021/03/27 07:05:02;;;;;;;;;;;22.90;92.00;;;;;;4955025;29;19910;-80
2021/03/27 07:07:48;;;;;;;;;;;22.70;92.10;;;;;;4937853;29;19997;-83
2021/03/27 07:10:33;;;;;;;;;;;22.70;92.00;;;;;;4955152;29;19918;-81
2021/03/27 07:13:18;;;;;;;;;;;22.70;92.20;;;;;;4937574;29;20009;-82
2021/03/27 07:15:56;;;;;;;;;;;22.60;92.10;;;;;;4954684;29;20369;-81
2021/03/27 07:18:41;;;;;;;;;;;22.60;92.20;;;;;;4951291;29;19922;-81
2021/03/27 07:21:18;;;;;;;;;;;22.60;92.90;;;;;;4954034;29;19914;-85
2021/03/27 07:23:45;;;;;;;;;;;22.50;93.50;;;;;;4951328;29;19973;-82
2021/03/27 07:26:43;;;;;;;;;;;22.50;93.30;;;;;;4953674;29;20439;-83
2021/03/27 07:29:31;;;;;;;;;;;22.40;93.30;;;;;;4953765;29;19915;-82
2021/03/27 07:32:19;;;;;;;;;;;22.40;93.40;;;;;;4953898;29;19929;-82
2021/03/27 07:35:06;;;;;;;;;;;22.30;93.60;;;;;;4940123;29;19969;-80
2021/03/27 07:37:50;;;;;;;;;;;22.30;94.00;;;;;;4950968;29;19911;-84
2021/03/27 07:40:38;;;;;;;;;;;22.30;94.30;;;;;;4935452;29;19910;-83
2021/03/27 07:43:12;;;;;;;;;;;22.20;94.60;;;;;;4915444;29;20296;-82
2021/03/27 07:45:51;;;;;;;;;;;22.20;95.10;;;;;;4952818;29;19923;-83
2021/03/27 07:48:36;;;;;;;;;;;22.10;95.20;;;;;;4953586;29;19918;-83
2021/03/27 07:51:20;;;;;;;;;;;22.10;94.90;;;;;;4953369;29;19927;-83
2021/03/27 07:54:05;;;;;;;;;;;22.10;95.30;;;;;;4950975;29;19915;-87
2021/03/27 07:56:54;;;;;;;;;;;22.00;94.80;;;;;;4935310;29;19917;-84
2021/03/27 07:59:39;;;;;;;;;;;22.00;95.90;;;;;;4919069;29;19958;-83
2021/03/27 08:02:09;;;;;;;;;;;22.00;96.00;;;;;;4953519;28;20369;-85
2021/03/27 08:04:41;;;;;;;;;;;21.90;95.60;;;;;;4957657;29;19915;-86
2021/03/27 08:07:17;;;;;;;;;;;21.90;96.40;;;;;;4940169;29;19921;-85
2021/03/27 08:09:47;;;;;;;;;;;21.90;96.40;;;;;;4957728;29;19918;-86
2021/03/27 08:12:19;;;;;;;;;;;21.80;96.30;;;;;;4956796;29;19925;-85
2021/03/27 08:14:49;;;;;;;;;;;21.80;97.00;;;;;;4957363;29;20021;-85
2021/03/27 08:17:28;;;;;;;;;;;21.70;97.10;;;;;;4959760;29;19930;-83
2021/03/27 08:20:03;;;;;;;;;;;21.70;96.80;;;;;;4958213;29;19915;-84
2021/03/27 08:22:30;;;;;;;;;;;21.70;96.60;;;;;;4957810;29;19945;-83
2021/03/27 08:25:23;;;;;;;;;;;21.70;97.30;;;;;;4957345;29;19914;-84
2021/03/27 08:27:50;;;;;;;;;;;21.60;97.00;;;;;;4956563;29;19922;-83
2021/03/27 08:30:35;;;;;;;;;;;21.60;97.30;;;;;;4957965;29;19918;-82
2021/03/27 08:33:20;;;;;;;;;;;21.50;97.20;;;;;;4956962;29;19918;-85
2021/03/27 08:36:01;;;;;;;;;;;21.50;96.90;;;;;;4956369;29;19921;-83
2021/03/27 08:38:35;;;;;;;;;;;21.40;96.60;;;;;;4957740;29;19950;-82
2021/03/27 08:41:20;;;;;;;;;;;21.40;96.70;;;;;;4957569;29;19969;-84
2021/03/27 08:44:04;;;;;;;;;;;21.40;96.70;;;;;;4936590;29;19915;-82
2021/03/27 08:46:38;;;;;;;;;;;21.40;96.50;;;;;;4944458;29;19925;-81
2021/03/27 08:49:11;;;;;;;;;;;21.40;96.90;;;;;;4956331;29;19925;-81
2021/03/27 08:51:56;;;;;;;;;;;21.40;96.50;;;;;;4954261;29;19929;-80
2021/03/27 08:54:35;;;;;;;;;;;21.30;96.70;;;;;;4937136;29;20550;-83
2021/03/27 08:57:04;;;;;;;;;;;21.30;96.30;;;;;;4953204;29;19914;-80
2021/03/27 08:59:49;;;;;;;;;;;21.30;96.50;;;;;;4932474;29;19998;-80
2021/03/27 09:02:19;;;;;;;;;;;21.30;96.30;;;;;;4953283;29;19918;-82
2021/03/27 09:05:12;;;;;;;;;;;21.30;96.00;;;;;;4936837;29;19954;-82
2021/03/27 09:07:45;;;;;;;;;;;21.30;96.30;;;;;;4915879;29;19915;-82
2021/03/27 09:10:21;;;;;;;;;;;21.30;96.50;;;;;;4955920;29;19934;-81
2021/03/27 09:12:54;;;;;;;;;;;21.20;96.50;;;;;;4956008;28;19915;-82
2021/03/27 09:15:38;;;;;;;;;;;21.20;96.30;;;;;;4955762;29;20369;-79
2021/03/27 09:18:12;;;;;;;;;;;21.20;96.70;;;;;;4955473;29;20384;-83
2021/03/27 09:20:39;;;;;;;;;;;21.20;96.60;;;;;;4956022;29;20005;-81
2021/03/27 09:23:07;;;;;;;;;;;21.10;96.30;;;;;;4949570;29;19922;-82
2021/03/27 09:25:53;;;;;;;;;;;21.10;96.30;;;;;;4943740;29;19938;-80
2021/03/27 09:28:23;;;;;;;;;;;21.00;96.30;;;;;;4944228;29;19919;-83
2021/03/27 09:30:55;;;;;;;;;;;21.10;96.10;;;;;;4953556;29;19926;-80
2021/03/27 09:33:30;;;;;;;;;;;21.10;96.10;;;;;;4952989;29;19926;-80
2021/03/27 09:36:06;;;;;;;;;;;21.00;96.20;;;;;;4935806;29;20017;-84
2021/03/27 09:38:36;;;;;;;;;;;21.10;96.20;;;;;;4951881;28;19925;-80
2021/03/27 09:41:08;;;;;;;;;;;21.10;96.30;;;;;;4941326;29;19921;-81
2021/03/27 09:43:38;;;;;;;;;;;21.00;96.20;;;;;;4953200;29;20482;-79
2021/03/27 09:46:07;;;;;;;;;;;21.00;95.90;;;;;;4935824;29;20085;-81
2021/03/27 09:48:37;;;;;;;;;;;21.00;96.00;;;;;;4953009;29;19914;-80
2021/03/27 09:51:22;;;;;;;;;;;20.90;96.00;;;;;;4953905;29;19922;-81
2021/03/27 09:54:11;;;;;;;;;;;21.00;95.90;;;;;;4953573;29;19974;-82
2021/03/27 09:56:58;;;;;;;;;;;21.00;96.30;;;;;;4930488;29;21659;-81
2021/03/27 09:59:34;;;;;;;;;;;20.90;96.70;;;;;;4949372;28;19962;-81
2021/03/27 10:02:10;;;;;;;;;;;20.90;96.40;;;;;;4945399;29;20062;-81
2021/03/27 10:04:45;;;;;;;;;;;20.90;97.10;;;;;;4955551;29;19921;-82
2021/03/27 10:07:15;;;;;;;;;;;20.90;96.60;;;;;;4937572;29;20012;-82
2021/03/27 10:09:44;;;;;;;;;;;20.90;97.40;;;;;;4951524;29;20369;-84
2021/03/27 10:12:29;;;;;;;;;;;20.90;97.30;;;;;;4932218;29;20006;-81
2021/03/27 10:15:18;;;;;;;;;;;20.90;96.90;;;;;;4966551;28;20062;-80
2021/03/27 10:17:49;;;;;;;;;;;20.90;97.40;;;;;;4907280;29;19930;-81
2021/03/27 10:20:16;;;;;;;;;;;20.80;97.20;;;;;;4935516;29;19936;-78
2021/03/27 10:23:03;;;;;;;;;;;20.80;97.40;;;;;;4952724;29;20500;-81
2021/03/27 10:25:43;;;;;;;;;;;20.80;97.10;;;;;;4952545;28;19915;-83
2021/03/27 10:28:11;;;;;;;;;;;20.80;97.60;;;;;;4958762;28;20383;-81
2021/03/27 10:30:44;;;;;;;;;;;20.80;97.90;;;;;;4942173;29;20355;-81
2021/03/27 10:33:26;;;;;;;;;;;20.80;97.60;;;;;;4933402;29;20322;-81
2021/03/27 10:36:22;;;;;;;;;;;20.70;97.70;;;;;;4952744;29;19914;-81
2021/03/27 10:39:03;;;;;;;;;;;20.80;96.90;;;;;;4897368;29;19920;-80
2021/03/27 10:41:38;;;;;;;;;;;20.80;97.20;;;;;;4945107;29;19929;-78
2021/03/27 10:44:18;;;;;;;;;;;20.80;97.30;;;;;;4952486;29;20775;-86
2021/03/27 10:46:49;;;;;;;;;;;20.70;96.70;;;;;;4953006;28;20328;-81
2021/03/27 10:49:18;;;;;;;;;;;20.80;97.60;;;;;;4951684;28;19914;-81
2021/03/27 10:51:51;;;;;;;;;;;20.70;97.40;;;;;;4952959;28;19942;-81
2021/03/27 10:54:37;;;;;;;;;;;20.70;97.50;;;;;;4951783;28;19926;-80
2021/03/27 10:57:07;;;;;;;;;;;20.70;97.80;;;;;;4931939;29;19919;-82
2021/03/27 10:59:40;;;;;;;;;;;20.70;98.00;;;;;;4931901;29;19914;-82
2021/03/27 11:02:25;;;;;;;;;;;20.60;97.60;;;;;;4933855;29;20568;-80
2021/03/27 11:04:51;;;;;;;;;;;20.60;97.50;;;;;;4951883;29;19999;-79
2021/03/27 11:07:36;;;;;;;;;;;20.60;97.90;;;;;;4932076;29;19911;-81
2021/03/27 11:10:23;;;;;;;;;;;20.60;98.20;;;;;;4951844;29;19934;-82
2021/03/27 11:12:59;;;;;;;;;;;20.50;97.60;;;;;;4934588;29;19918;-82
2021/03/27 11:15:45;;;;;;;;;;;20.50;97.50;;;;;;4935236;29;19918;-81
2021/03/27 11:18:13;;;;;;;;;;;20.50;97.40;;;;;;4951978;29;19922;-81
2021/03/27 11:20:48;;;;;;;;;;;20.50;96.80;;;;;;4934542;29;19917;-82
2021/03/27 11:23:38;;;;;;;;;;;20.60;96.70;;;;;;4951422;28;19922;-83
2021/03/27 11:26:13;;;;;;;;;;;20.60;96.90;;;;;;4951233;29;19933;-81
2021/03/27 11:29:01;;;;;;;;;;;20.60;96.20;;;;;;4952279;29;19918;-82
2021/03/27 11:31:45;;;;;;;;;;;20.60;96.60;;;;;;4951782;29;20027;-82
2021/03/27 11:34:18;;;;;;;;;;;20.60;96.70;;;;;;4934753;29;19954;-83
2021/03/27 11:37:07;;;;;;;;;;;20.60;97.00;;;;;;4952944;28;20396;-86
2021/03/27 11:39:52;;;;;;;;;;;20.60;96.40;;;;;;4955770;29;19922;-80
2021/03/27 11:42:25;;;;;;;;;;;20.60;96.70;;;;;;4937982;29;20289;-81
2021/03/27 11:44:51;;;;;;;;;;;20.60;96.70;;;;;;4955553;29;19961;-80
2021/03/27 11:47:19;;;;;;;;;;;20.60;96.00;;;;;;4955390;29;20322;-81
2021/03/27 11:49:48;;;;;;;;;;;20.60;96.70;;;;;;4938394;29;19918;-80
2021/03/27 11:52:21;;;;;;;;;;;20.60;96.40;;;;;;4958597;29;19922;-80
2021/03/27 11:54:52;;;;;;;;;;;20.60;96.30;;;;;;4950819;29;19918;-80
2021/03/27 11:57:35;;;;;;;;;;;20.60;96.10;;;;;;4958351;29;19915;-82
2021/03/27 12:02:52;;;;;;;;;;;20.50;96.30;;;;;;4954646;28;19937;-79
2021/03/27 12:05:28;;;;;;;;;;;20.50;96.50;;;;;;4955340;29;19914;-83
2021/03/27 12:08:13;;;;;;;;;;;20.50;96.30;;;;;;4955520;29;19911;-80
2021/03/27 12:10:45;;;;;;;;;;;20.50;96.60;;;;;;4955272;29;20081;-79
2021/03/27 12:13:38;;;;;;;;;;;20.50;96.00;;;;;;4937304;29;19918;-80
2021/03/27 12:16:05;;;;;;;;;;;20.50;96.30;;;;;;4952709;29;20491;-82
2021/03/27 12:18:32;;;;;;;;;;;20.50;96.20;;;;;;4937792;29;19954;-81
2021/03/27 12:21:30;;;;;;;;;;;20.50;96.60;;;;;;4954671;29;19965;-80
2021/03/27 12:24:17;;;;;;;;;;;20.50;96.20;;;;;;4886433;29;19918;-82
2021/03/27 12:26:58;;;;;;;;;;;20.50;96.30;;;;;;4950082;29;19958;-78
2021/03/27 12:29:42;;;;;;;;;;;20.50;96.40;;;;;;4955775;29;20038;-78
2021/03/27 12:32:38;;;;;;;;;;;20.50;96.60;;;;;;4961016;29;19914;-78
2021/03/27 12:35:07;;;;;;;;;;;20.40;96.60;;;;;;4958986;29;19914;-79
2021/03/27 12:37:41;;;;;;;;;;;20.40;96.40;;;;;;4958152;29;19921;-80
2021/03/27 12:40:08;;;;;;;;;;;20.50;96.40;;;;;;4957229;28;19914;-79
2021/03/27 12:42:53;;;;;;;;;;;20.50;96.40;;;;;;4954494;29;19914;-79
2021/03/27 12:45:25;;;;;;;;;;;20.50;96.30;;;;;;4953274;28;19914;-82
2021/03/27 12:47:59;;;;;;;;;;;20.50;96.30;;;;;;4936607;29;20284;-82
2021/03/27 12:50:26;;;;;;;;;;;20.60;97.10;;;;;;4954142;29;19919;-81
2021/03/27 12:52:59;;;;;;;;;;;20.60;96.70;;;;;;4954308;29;20009;-80
2021/03/27 12:55:27;;;;;;;;;;;20.60;96.90;;;;;;4954154;29;19915;-79
2021/03/27 12:57:56;;;;;;;;;;;20.60;96.20;;;;;;4954150;29;19915;-82
2021/03/27 13:00:23;;;;;;;;;;;20.60;96.40;;;;;;4953779;29;20266;-80
2021/03/27 13:02:55;;;;;;;;;;;20.60;96.20;;;;;;4952174;29;19914;-78
2021/03/27 13:05:41;;;;;;;;;;;20.60;96.10;;;;;;4935270;29;20338;-78
2021/03/27 13:08:16;;;;;;;;;;;20.60;96.90;;;;;;4954474;29;20361;-79
2021/03/27 13:10:58;;;;;;;;;;;20.60;96.00;;;;;;4953658;29;20001;-78
2021/03/27 13:13:37;;;;;;;;;;;20.70;96.10;;;;;;4953731;29;19922;-80
2021/03/27 13:16:18;;;;;;;;;;;20.70;95.30;;;;;;4941178;29;19919;-80
2021/03/27 13:18:45;;;;;;;;;;;20.70;94.70;;;;;;4953057;29;19994;-80
2021/03/27 13:21:16;;;;;;;;;;;20.70;94.80;;;;;;4953326;29;20001;-78
2021/03/27 13:23:48;;;;;;;;;;;20.80;94.10;;;;;;4953922;29;20305;-79
2021/03/27 13:26:18;;;;;;;;;;;20.80;94.70;;;;;;4933374;29;19986;-78
2021/03/27 13:29:02;;;;;;;;;;;20.80;95.30;;;;;;4946697;29;19915;-81
2021/03/27 13:31:38;;;;;;;;;;;20.80;94.50;;;;;;4953136;29;19922;-81
2021/03/27 13:34:04;;;;;;;;;;;20.80;94.50;;;;;;4953750;29;19919;-78
2021/03/27 13:36:33;;;;;;;;;;;20.70;96.00;;;;;;4953831;29;19950;-82
2021/03/27 13:39:02;;;;;;;;;;;20.70;95.60;;;;;;4953631;29;19945;-82
2021/03/27 13:41:38;;;;;;;;;;;20.60;95.80;;;;;;4953978;29;20425;-81
2021/03/27 13:44:08;;;;;;;;;;;20.60;94.80;;;;;;4967306;29;19911;-79
2021/03/27 13:46:51;;;;;;;;;;;20.50;96.70;;;;;;4958075;29;19914;-79
2021/03/27 13:49:25;;;;;;;;;;;20.50;96.20;;;;;;4954248;29;19936;-79
2021/03/27 13:51:53;;;;;;;;;;;20.50;96.10;;;;;;4941216;29;19934;-77
2021/03/27 13:54:20;;;;;;;;;;;20.40;95.90;;;;;;4936504;29;20009;-81
2021/03/27 13:57:05;;;;;;;;;;;20.40;96.40;;;;;;4936266;29;20409;-79
2021/03/27 13:59:51;;;;;;;;;;;20.50;96.00;;;;;;4942955;28;19918;-80
2021/03/27 14:02:21;;;;;;;;;;;20.50;96.30;;;;;;4934350;29;19914;-80
2021/03/27 14:05:11;;;;;;;;;;;20.50;95.80;;;;;;4953177;29;20006;-83
2021/03/27 14:07:41;;;;;;;;;;;20.40;95.80;;;;;;4953567;29;19949;-78
2021/03/27 14:10:29;;;;;;;;;;;20.40;95.80;;;;;;4953292;29;19919;-82
2021/03/27 14:13:01;;;;;;;;;;;20.40;95.60;;;;;;4953769;29;20021;-79
2021/03/27 14:15:34;;;;;;;;;;;20.30;96.00;;;;;;4953699;29;19958;-78
2021/03/27 14:18:16;;;;;;;;;;;20.30;95.80;;;;;;4953370;29;19922;-83
2021/03/27 14:21:08;;;;;;;;;;;20.30;95.40;;;;;;4935302;29;19921;-78
2021/03/27 14:23:38;;;;;;;;;;;20.20;95.20;;;;;;4923519;29;20501;-81
2021/03/27 14:26:09;;;;;;;;;;;20.20;95.20;;;;;;4953548;29;20329;-82
2021/03/27 14:28:39;;;;;;;;;;;20.20;95.40;;;;;;4953721;29;20366;-80
2021/03/27 14:31:21;;;;;;;;;;;20.10;95.70;;;;;;4953312;29;19923;-79
2021/03/27 14:34:10;;;;;;;;;;;20.10;96.30;;;;;;4953657;29;19917;-81
2021/03/27 14:36:47;;;;;;;;;;;20.10;97.60;;;;;;4917051;29;19917;-80
2021/03/27 14:39:25;;;;;;;;;;;20.10;97.60;;;;;;4936253;29;19921;-83
2021/03/27 14:42:10;;;;;;;;;;;20.00;97.40;;;;;;4953134;29;19917;-77
2021/03/27 14:44:58;;;;;;;;;;;20.00;98.40;;;;;;4952887;29;19954;-84
2021/03/27 14:47:46;;;;;;;;;;;19.90;97.90;;;;;;4932524;29;19915;-85
2021/03/27 14:50:16;;;;;;;;;;;19.90;98.00;;;;;;4948853;29;19918;-81
2021/03/27 14:52:48;;;;;;;;;;;19.90;97.90;;;;;;4951695;29;19922;-83
2021/03/27 14:55:33;;;;;;;;;;;19.90;97.30;;;;;;4953153;29;19926;-82
2021/03/27 14:58:11;;;;;;;;;;;19.90;97.30;;;;;;4952977;29;19915;-83
2021/03/27 15:00:38;;;;;;;;;;;19.90;97.10;;;;;;4932090;29;20301;-84
2021/03/27 15:03:05;;;;;;;;;;;20.00;97.70;;;;;;4935611;29;19921;-84
2021/03/27 15:05:35;;;;;;;;;;;20.10;95.50;;;;;;4952585;29;19958;-83
2021/03/27 15:08:04;;;;;;;;;;;20.10;96.00;;;;;;4953420;29;19921;-83
2021/03/27 15:10:43;;;;;;;;;;;20.20;95.10;;;;;;4952579;29;20270;-81
2021/03/27 15:13:22;;;;;;;;;;;20.30;94.80;;;;;;4939046;29;19954;-84
2021/03/27 15:16:10;;;;;;;;;;;20.30;94.90;;;;;;4936095;29;19921;-78